KNFL

Fallon NAS (Van Voorhis Field) Airport

Fallon, Nevada, USA
METAR KNFL 211956Z VRB05KT 10SM SCT060 BKN100 BKN200 OVC250 04/M31 A3028 RMK AO2 SLP215 T00441306
Observed Flight Rules
Jan-21 @ 19:56 UTC (29 minutes ago) Visual Flight Rules
Wind Visibility Clouds
Variable at 5 knots 10 miles
  • Scattered at 6,000' AGL
  • Broken at 10,000' AGL
  • Broken at 20,000' AGL
  • Overcast at 25,000' AGL
Temperatures Readings
Current 4°C / 39°F
Dewpoint -31°C / -24°F
Humidity 6%
Altimeter 30.28" Hg
Pressure 1021.5 hPa
Elevation 1199
METAR KNFL 211956Z VRB05KT 10SM SCT060 BKN100 BKN200 OVC250 04/M31 A3028 RMK AO2 SLP215 T00441306
Observed Flight Rules
Jan-21 @ 19:56 UTC
(29 minutes ago)
VFR
Wind Visibility
Variable at 5 knots 10 miles
Clouds
  • Scattered at 6,000' AGL
  • Broken at 10,000' AGL
  • Broken at 20,000' AGL
  • Overcast at 25,000' AGL
Temperature Dewpoint
4°C / 39°F -31°C / -24°F
Humidity Altimeter Pressure
6% 30.28" Hg 1021.5 hPa